Ocean Bluff, Massachusetts
Current Conditions -  °F | °C
As of 12:30 AM on Monday 20 Oct 2014 (Local Time) from KGHG Reporting Station
Scattered Clouds Scattered Clouds  
Wind Chill: 41°   Ceiling: Unl
Heat Index: 45°   Visibility: 10mi
Dew Point: 27°   Wind: 7mph
Humidity: 49%   Direction: 320°NW
Pressure: 29.97"   Gusts: 17mph
Location:  42.1°N, 70.65°W
Report Text: KGHG 200430Z AUTO 32006G15KT 010V350 10SM SCT048 07/M03 A2997 RMK AO2
Loading
Personal Weather Stations






























Interactive Weather Map
Tropical Storm Tracking
New forecast layout! Learn more

10-Day Weather Forecast

Advertisements
Track Severe Weather on mobile